Time;durP1;ratioP1;P1;durP2;ratioP2;P2;SDS_P1;SDS_P2;PMS_P1;PMS_P2;Temp;Humidity;BMP_temperature;BMP_pressure;BME280_temperature;BME280_humidity;BME280_pressure;Samples;Min_cycle;Max_cycle;Signal;HPM_P1;HPM_P2
2021/10/16 00:02:00;;;;;;;5.13;0.90;;;;;;;;;;10437180;28;20052;-64
2021/10/16 00:07:05;;;;;;;2.90;1.00;;;;;;;;;;10436605;28;20037;-65
2021/10/16 00:12:07;;;;;;;3.70;0.88;;;;;;;;;;10436514;28;20079;-65
2021/10/16 00:17:10;;;;;;;5.70;1.90;;;;;;;;;;10434034;28;20045;-65
2021/10/16 00:22:15;;;;;;;3.03;0.75;;;;;;;;;;10438159;28;20128;-65
2021/10/16 00:27:18;;;;;;;3.50;1.00;;;;;;;;;;10435081;28;20160;-65
2021/10/16 00:32:20;;;;;;;6.82;1.73;;;;;;;;;;10437949;28;20045;-65
2021/10/16 00:37:25;;;;;;;12.75;3.00;;;;;;;;;;10436774;28;20124;-65
2021/10/16 00:42:28;;;;;;;12.15;2.58;;;;;;;;;;10436473;28;20410;-65
2021/10/16 00:47:30;;;;;;;4.25;1.05;;;;;;;;;;10432499;28;20053;-65
2021/10/16 00:52:35;;;;;;;6.00;1.60;;;;;;;;;;10433169;28;20045;-65
2021/10/16 00:57:38;;;;;;;4.00;0.88;;;;;;;;;;10436505;28;20041;-65
2021/10/16 01:02:41;;;;;;;1.40;0.57;;;;;;;;;;10441136;28;20078;-65
2021/10/16 01:07:46;;;;;;;5.50;1.15;;;;;;;;;;10423734;28;20045;-65
2021/10/16 01:12:50;;;;;;;1.17;0.60;;;;;;;;;;10420026;28;20049;-65
2021/10/16 01:17:54;;;;;;;1.75;0.60;;;;;;;;;;10431681;28;20140;-64
2021/10/16 01:22:59;;;;;;;1.77;0.43;;;;;;;;;;10418412;28;20160;-65
2021/10/16 01:28:02;;;;;;;3.08;1.02;;;;;;;;;;10417608;28;20056;-65
2021/10/16 01:33:03;;;;;;;0.68;0.40;;;;;;;;;;10422944;28;20084;-65
2021/10/16 01:38:08;;;;;;;2.80;0.65;;;;;;;;;;10419191;28;20045;-65
2021/10/16 01:43:10;;;;;;;5.90;1.25;;;;;;;;;;10416558;28;20068;-65
2021/10/16 01:48:13;;;;;;;1.65;0.73;;;;;;;;;;10425196;28;20041;-65
2021/10/16 01:53:18;;;;;;;1.90;0.70;;;;;;;;;;10416318;28;20061;-65
2021/10/16 01:58:26;;;;;;;2.97;0.75;;;;;;;;;;10418106;28;20095;-65
2021/10/16 02:03:48;;;;;;;5.35;1.13;;;;;;;;;;10416609;28;20068;-65
2021/10/16 02:09:00;;;;;;;2.72;0.50;;;;;;;;;;10415052;28;20050;-65
2021/10/16 02:14:04;;;;;;;3.88;0.98;;;;;;;;;;10423337;28;20045;-65
2021/10/16 02:19:07;;;;;;;4.68;1.40;;;;;;;;;;10411116;28;20124;-64
2021/10/16 02:24:13;;;;;;;7.95;1.60;;;;;;;;;;10408146;28;20057;-65
2021/10/16 02:29:18;;;;;;;8.82;2.10;;;;;;;;;;10415060;28;20400;-64
2021/10/16 02:34:32;;;;;;;3.30;0.77;;;;;;;;;;10427129;28;20049;-64
2021/10/16 02:39:41;;;;;;;2.10;0.60;;;;;;;;;;10421715;28;20049;-65
2021/10/16 02:44:44;;;;;;;2.75;0.70;;;;;;;;;;10428912;28;20045;-64
2021/10/16 02:49:47;;;;;;;7.40;1.75;;;;;;;;;;10420286;28;20507;-65
2021/10/16 02:54:51;;;;;;;4.20;1.10;;;;;;;;;;10410602;28;20061;-65
2021/10/16 02:59:55;;;;;;;5.65;1.55;;;;;;;;;;10416974;28;20064;-65
2021/10/16 03:04:59;;;;;;;11.52;2.50;;;;;;;;;;10420999;28;20079;-64
2021/10/16 03:10:03;;;;;;;4.68;1.20;;;;;;;;;;10425687;28;20625;-64
2021/10/16 03:15:07;;;;;;;5.57;1.60;;;;;;;;;;10426867;28;20056;-64
2021/10/16 03:20:18;;;;;;;4.82;1.10;;;;;;;;;;10413037;28;20054;-64
2021/10/16 03:25:24;;;;;;;6.63;1.63;;;;;;;;;;10418221;28;20045;-65
2021/10/16 03:30:27;;;;;;;4.22;1.13;;;;;;;;;;10411018;28;20056;-65
2021/10/16 03:35:30;;;;;;;4.97;1.35;;;;;;;;;;10411213;28;20073;-64
2021/10/16 03:40:35;;;;;;;3.63;0.80;;;;;;;;;;10420708;28;20793;-64
2021/10/16 03:45:40;;;;;;;6.43;1.23;;;;;;;;;;10418829;28;20044;-65
2021/10/16 03:50:43;;;;;;;3.85;0.98;;;;;;;;;;10414804;28;20850;-65
2021/10/16 03:55:48;;;;;;;3.42;1.00;;;;;;;;;;10415391;28;20162;-65
2021/10/16 04:00:52;;;;;;;0.30;0.20;;;;;;;;;;10429600;28;20882;-64
2021/10/16 04:05:56;;;;;;;1.95;0.60;;;;;;;;;;10416416;28;20051;-65
2021/10/16 04:11:01;;;;;;;7.32;1.73;;;;;;;;;;10421319;28;20658;-64
2021/10/16 04:16:04;;;;;;;1.10;0.50;;;;;;;;;;10410396;28;20046;-65
2021/10/16 04:21:08;;;;;;;1.27;0.30;;;;;;;;;;10412175;28;20122;-65
2021/10/16 04:26:12;;;;;;;3.35;0.63;;;;;;;;;;10412986;28;20053;-65
2021/10/16 04:31:15;;;;;;;1.88;0.50;;;;;;;;;;10408311;28;20045;-64
2021/10/16 04:36:18;;;;;;;2.80;0.60;;;;;;;;;;10415818;28;20131;-65
2021/10/16 04:41:22;;;;;;;1.95;0.60;;;;;;;;;;10404044;28;20075;-64
2021/10/16 04:46:25;;;;;;;4.88;1.33;;;;;;;;;;10407680;28;20052;-65
2021/10/16 04:51:35;;;;;;;2.53;0.55;;;;;;;;;;10410147;28;20053;-65
2021/10/16 04:56:40;;;;;;;2.28;0.70;;;;;;;;;;10403634;28;20152;-65
2021/10/16 05:01:43;;;;;;;0.50;0.30;;;;;;;;;;10411982;28;20051;-65
2021/10/16 05:06:46;;;;;;;1.75;0.50;;;;;;;;;;10404488;28;20045;-64
2021/10/16 05:11:51;;;;;;;2.92;1.00;;;;;;;;;;10406954;28;20045;-63
2021/10/16 05:16:54;;;;;;;1.90;0.43;;;;;;;;;;10400001;28;20045;-63
2021/10/16 05:21:57;;;;;;;7.63;1.42;;;;;;;;;;10394347;28;20054;-63
2021/10/16 05:27:01;;;;;;;2.72;0.73;;;;;;;;;;10399609;28;20419;-65
2021/10/16 05:32:06;;;;;;;4.95;1.10;;;;;;;;;;10401283;28;20107;-64
2021/10/16 05:37:09;;;;;;;7.72;1.55;;;;;;;;;;10403750;28;20054;-63
2021/10/16 05:42:14;;;;;;;4.90;1.60;;;;;;;;;;10410052;28;20049;-64
2021/10/16 05:47:17;;;;;;;2.17;0.90;;;;;;;;;;10413337;28;20751;-64
2021/10/16 05:52:21;;;;;;;2.83;0.93;;;;;;;;;;10417622;28;20415;-64
2021/10/16 05:57:27;;;;;;;3.45;0.80;;;;;;;;;;10417982;28;20811;-64
2021/10/16 06:02:30;;;;;;;1.65;0.40;;;;;;;;;;10416265;28;20049;-64
2021/10/16 06:07:33;;;;;;;1.60;0.63;;;;;;;;;;10419953;28;20502;-64
2021/10/16 06:12:37;;;;;;;2.30;0.75;;;;;;;;;;10424217;28;20049;-64
2021/10/16 06:17:41;;;;;;;1.95;0.60;;;;;;;;;;10419473;28;20118;-64
2021/10/16 06:22:46;;;;;;;3.35;0.90;;;;;;;;;;10407393;28;20045;-63
2021/10/16 06:27:51;;;;;;;2.78;0.70;;;;;;;;;;10417280;28;20136;-64
2021/10/16 06:32:55;;;;;;;1.52;0.52;;;;;;;;;;10432306;28;20396;-63
2021/10/16 06:37:58;;;;;;;2.63;1.00;;;;;;;;;;10423376;28;20056;-63
2021/10/16 06:43:03;;;;;;;8.07;2.28;;;;;;;;;;10423177;28;20140;-64
2021/10/16 06:48:31;;;;;;;3.95;0.90;;;;;;;;;;10419776;28;20848;-63
2021/10/16 06:53:42;;;;;;;5.30;1.40;;;;;;;;;;10399597;28;20045;-63
2021/10/16 06:58:48;;;;;;;4.25;0.88;;;;;;;;;;10429051;28;20045;-63
2021/10/16 07:03:51;;;;;;;4.00;0.98;;;;;;;;;;10401461;28;20728;-63
2021/10/16 07:08:55;;;;;;;3.55;0.82;;;;;;;;;;10421769;28;20052;-63
2021/10/16 07:13:59;;;;;;;3.08;0.85;;;;;;;;;;10424163;28;20059;-64
2021/10/16 07:19:02;;;;;;;1.73;0.60;;;;;;;;;;10405727;28;20175;-63
2021/10/16 07:24:05;;;;;;;2.95;1.00;;;;;;;;;;10412984;28;20045;-64
2021/10/16 07:29:10;;;;;;;2.00;0.57;;;;;;;;;;10414691;28;20043;-64
2021/10/16 07:34:12;;;;;;;1.42;0.63;;;;;;;;;;10414660;28;20049;-64
2021/10/16 07:39:15;;;;;;;1.17;0.40;;;;;;;;;;10414247;28;20038;-63
2021/10/16 07:44:20;;;;;;;3.92;1.13;;;;;;;;;;10414157;28;20042;-64
2021/10/16 07:49:23;;;;;;;2.22;0.77;;;;;;;;;;10411382;28;20046;-64
2021/10/16 07:54:26;;;;;;;3.42;1.05;;;;;;;;;;10411506;28;20057;-64
2021/10/16 07:59:30;;;;;;;3.08;0.80;;;;;;;;;;10411746;28;20037;-64
2021/10/16 08:04:33;;;;;;;3.88;1.30;;;;;;;;;;10412030;28;20467;-64
2021/10/16 08:09:36;;;;;;;3.65;1.00;;;;;;;;;;10404092;28;20511;-63
2021/10/16 08:14:40;;;;;;;2.53;0.75;;;;;;;;;;10405309;28;20040;-62
2021/10/16 08:19:43;;;;;;;0.80;0.30;;;;;;;;;;10407679;28;20049;-63
2021/10/16 08:24:46;;;;;;;4.60;1.40;;;;;;;;;;10406033;28;20415;-64
2021/10/16 08:29:51;;;;;;;5.93;1.65;;;;;;;;;;10400754;28;20029;-63
2021/10/16 08:35:00;;;;;;;0.55;0.32;;;;;;;;;;10402167;28;20374;-63
2021/10/16 08:40:06;;;;;;;4.15;1.15;;;;;;;;;;10401982;28;20057;-63
2021/10/16 08:45:11;;;;;;;4.57;1.20;;;;;;;;;;10403071;28;20045;-64
2021/10/16 08:50:14;;;;;;;3.65;1.27;;;;;;;;;;10394505;28;20086;-63
2021/10/16 08:55:18;;;;;;;3.03;0.88;;;;;;;;;;10399700;28;20034;-63
2021/10/16 09:00:41;;;;;;;1.08;0.52;;;;;;;;;;10403514;28;20056;-63
2021/10/16 09:06:00;;;;;;;0.30;0.10;;;;;;;;;;10399916;28;20475;-63
2021/10/16 09:11:18;;;;;;;0.20;0.20;;;;;;;;;;10400117;28;20575;-63
2021/10/16 09:16:23;;;;;;;3.10;0.80;;;;;;;;;;10405126;28;20041;-63
2021/10/16 09:21:27;;;;;;;0.10;0.10;;;;;;;;;;10401219;28;20057;-64
2021/10/16 09:26:31;;;;;;;0.10;0.10;;;;;;;;;;10414222;28;20042;-61
2021/10/16 09:31:35;;;;;;;0.10;0.10;;;;;;;;;;10410815;28;20052;-63
2021/10/16 09:36:41;;;;;;;0.10;0.10;;;;;;;;;;10417220;28;20052;-63
2021/10/16 09:41:48;;;;;;;0.10;0.10;;;;;;;;;;10414094;28;20049;-62
2021/10/16 09:47:09;;;;;;;0.10;0.10;;;;;;;;;;10411086;28;20114;-63
2021/10/16 09:52:13;;;;;;;0.10;0.10;;;;;;;;;;10409192;28;20539;-63
2021/10/16 09:57:19;;;;;;;0.20;0.20;;;;;;;;;;10406207;28;20049;-63
2021/10/16 10:02:22;;;;;;;0.20;0.20;;;;;;;;;;10407699;28;20468;-65
2021/10/16 10:07:26;;;;;;;0.20;0.15;;;;;;;;;;10406383;28;20077;-64
2021/10/16 10:12:30;;;;;;;0.10;0.10;;;;;;;;;;10408274;28;20045;-64
2021/10/16 10:17:34;;;;;;;0.20;0.20;;;;;;;;;;10429795;28;20132;-64
2021/10/16 10:22:37;;;;;;;0.10;0.10;;;;;;;;;;10406813;28;20144;-64
2021/10/16 10:27:44;;;;;;;0.20;0.20;;;;;;;;;;10417654;28;20071;-64
2021/10/16 10:32:47;;;;;;;0.20;0.20;;;;;;;;;;10410259;28;20045;-64
2021/10/16 10:37:53;;;;;;;0.10;0.10;;;;;;;;;;10406950;28;20617;-64
2021/10/16 10:42:58;;;;;;;0.10;0.10;;;;;;;;;;10409951;28;20051;-65
2021/10/16 10:48:02;;;;;;;0.20;0.20;;;;;;;;;;10412322;28;20038;-64
2021/10/16 10:53:06;;;;;;;0.20;0.20;;;;;;;;;;10420025;28;20049;-64
2021/10/16 10:58:10;;;;;;;0.15;0.13;;;;;;;;;;10415680;28;20065;-65
2021/10/16 11:03:35;;;;;;;0.10;0.10;;;;;;;;;;10415033;28;20052;-64
2021/10/16 11:08:38;;;;;;;0.10;0.10;;;;;;;;;;10407592;28;20057;-65
2021/10/16 11:13:42;;;;;;;0.10;0.10;;;;;;;;;;10418585;28;20045;-65
2021/10/16 11:18:56;;;;;;;0.10;0.10;;;;;;;;;;10416355;28;20038;-65
2021/10/16 11:24:04;;;;;;;0.10;0.10;;;;;;;;;;10413233;28;20057;-64
2021/10/16 11:29:09;;;;;;;0.10;0.10;;;;;;;;;;10415151;28;20041;-64
2021/10/16 11:34:12;;;;;;;0.10;0.10;;;;;;;;;;10413563;28;20049;-64
2021/10/16 11:39:16;;;;;;;0.10;0.10;;;;;;;;;;10416403;28;20037;-64
2021/10/16 11:44:20;;;;;;;0.20;0.15;;;;;;;;;;10426557;28;20049;-64
2021/10/16 11:49:24;;;;;;;0.10;0.10;;;;;;;;;;10420078;28;20494;-64
2021/10/16 11:54:26;;;;;;;0.10;0.10;;;;;;;;;;10408480;28;20057;-64
2021/10/16 11:59:31;;;;;;;0.10;0.10;;;;;;;;;;10419296;28;20083;-65
2021/10/16 12:04:35;;;;;;;0.30;0.13;;;;;;;;;;10417291;28;20077;-65
2021/10/16 12:09:38;;;;;;;0.10;0.10;;;;;;;;;;10418442;28;20041;-64
2021/10/16 12:14:43;;;;;;;0.10;0.10;;;;;;;;;;10413474;28;20155;-64
2021/10/16 12:19:55;;;;;;;0.10;0.10;;;;;;;;;;10403587;28;20215;-64
2021/10/16 12:24:59;;;;;;;0.10;0.10;;;;;;;;;;10411582;28;20126;-64
2021/10/16 12:30:10;;;;;;;0.10;0.10;;;;;;;;;;10417744;28;20128;-64
2021/10/16 12:35:18;;;;;;;0.10;0.10;;;;;;;;;;10409072;28;20045;-64
2021/10/16 12:40:33;;;;;;;0.10;0.10;;;;;;;;;;10416110;28;20075;-64
2021/10/16 12:45:38;;;;;;;0.10;0.10;;;;;;;;;;10410307;28;20053;-64
2021/10/16 12:50:49;;;;;;;0.20;0.20;;;;;;;;;;10411602;28;20116;-64
2021/10/16 12:55:52;;;;;;;0.10;0.10;;;;;;;;;;10413844;28;20063;-64
2021/10/16 13:00:57;;;;;;;0.08;0.08;;;;;;;;;;10415655;28;20041;-64
2021/10/16 13:06:00;;;;;;;0.10;0.10;;;;;;;;;;10412913;28;20138;-64
2021/10/16 13:11:03;;;;;;;0.10;0.10;;;;;;;;;;10420087;28;20049;-64
2021/10/16 13:16:07;;;;;;;0.00;0.00;;;;;;;;;;10415244;28;20163;-64
2021/10/16 13:21:10;;;;;;;0.10;0.10;;;;;;;;;;10405430;28;20130;-64
2021/10/16 13:26:12;;;;;;;0.10;0.10;;;;;;;;;;10402091;28;20045;-64
2021/10/16 13:31:17;;;;;;;0.10;0.08;;;;;;;;;;10409633;28;20446;-64
2021/10/16 13:36:20;;;;;;;0.10;0.10;;;;;;;;;;10404564;28;20057;-64
2021/10/16 13:41:23;;;;;;;0.10;0.10;;;;;;;;;;10391822;28;20041;-64
2021/10/16 13:46:27;;;;;;;0.10;0.10;;;;;;;;;;10392194;28;20488;-64
2021/10/16 13:51:30;;;;;;;0.10;0.10;;;;;;;;;;10393912;28;20046;-64
2021/10/16 13:56:33;;;;;;;0.05;0.05;;;;;;;;;;10392211;28;20049;-64
2021/10/16 14:01:37;;;;;;;0.20;0.10;;;;;;;;;;10393738;28;20056;-64
2021/10/16 14:06:40;;;;;;;0.10;0.10;;;;;;;;;;10393301;28;20468;-64
2021/10/16 14:11:43;;;;;;;0.08;0.08;;;;;;;;;;10399821;28;20040;-64
2021/10/16 14:16:47;;;;;;;0.00;0.00;;;;;;;;;;10396003;28;20061;-63
2021/10/16 14:21:50;;;;;;;0.10;0.10;;;;;;;;;;10395780;28;20072;-63
2021/10/16 14:26:53;;;;;;;0.30;0.20;;;;;;;;;;10396346;28;20121;-64
2021/10/16 14:31:57;;;;;;;0.00;0.00;;;;;;;;;;10397183;28;20033;-64
2021/10/16 14:37:00;;;;;;;0.10;0.10;;;;;;;;;;10401537;28;20689;-64
2021/10/16 14:42:03;;;;;;;0.10;0.10;;;;;;;;;;10400455;28;20048;-63
2021/10/16 14:47:07;;;;;;;0.10;0.10;;;;;;;;;;10395158;28;20041;-64
2021/10/16 14:52:11;;;;;;;0.00;0.00;;;;;;;;;;10397276;28;20042;-64
2021/10/16 14:57:14;;;;;;;0.10;0.10;;;;;;;;;;10396866;28;20475;-64
2021/10/16 15:02:18;;;;;;;0.10;0.10;;;;;;;;;;10410625;28;20033;-64
2021/10/16 15:07:21;;;;;;;0.10;0.10;;;;;;;;;;10398170;28;20160;-63
2021/10/16 15:12:24;;;;;;;0.10;0.10;;;;;;;;;;10397349;28;20041;-63
2021/10/16 15:17:29;;;;;;;0.00;0.00;;;;;;;;;;10394301;28;20048;-63
2021/10/16 15:22:32;;;;;;;0.10;0.10;;;;;;;;;;10416045;28;20144;-66
2021/10/16 15:27:35;;;;;;;0.10;0.10;;;;;;;;;;10399969;28;20045;-66
2021/10/16 15:32:41;;;;;;;0.10;0.10;;;;;;;;;;10396482;28;20041;-65
2021/10/16 15:37:46;;;;;;;0.00;0.00;;;;;;;;;;10400215;28;20144;-65
2021/10/16 15:42:51;;;;;;;0.03;0.03;;;;;;;;;;10397887;28;20041;-64
2021/10/16 15:47:57;;;;;;;0.20;0.10;;;;;;;;;;10401117;28;20391;-65
2021/10/16 15:53:00;;;;;;;0.10;0.10;;;;;;;;;;10397013;28;20096;-65
2021/10/16 15:58:03;;;;;;;0.03;0.03;;;;;;;;;;10398347;28;20087;-68
2021/10/16 16:03:07;;;;;;;0.10;0.10;;;;;;;;;;10399409;28;20045;-66
2021/10/16 16:08:11;;;;;;;0.10;0.10;;;;;;;;;;10396076;28;20128;-67
2021/10/16 16:13:15;;;;;;;0.17;0.10;;;;;;;;;;10397470;28;20550;-63
2021/10/16 16:18:20;;;;;;;0.10;0.10;;;;;;;;;;10393653;28;20045;-64
2021/10/16 16:23:23;;;;;;;0.10;0.10;;;;;;;;;;10406901;28;20053;-64
2021/10/16 16:28:27;;;;;;;0.20;0.10;;;;;;;;;;10394503;28;20134;-63
2021/10/16 16:33:32;;;;;;;0.10;0.10;;;;;;;;;;10393525;28;20791;-67
2021/10/16 16:38:35;;;;;;;0.10;0.10;;;;;;;;;;10392884;28;20833;-63
2021/10/16 16:43:37;;;;;;;0.17;0.17;;;;;;;;;;10395071;28;20099;-62
2021/10/16 16:48:43;;;;;;;0.10;0.10;;;;;;;;;;10396867;28;20057;-66
2021/10/16 16:53:47;;;;;;;0.10;0.10;;;;;;;;;;10395454;28;20117;-66
2021/10/16 16:58:50;;;;;;;0.00;0.00;;;;;;;;;;10393543;28;20496;-66
2021/10/16 17:03:55;;;;;;;0.10;0.10;;;;;;;;;;10395709;28;20052;-64
2021/10/16 17:09:19;;;;;;;0.20;0.20;;;;;;;;;;10410660;28;20044;-66
2021/10/16 17:14:22;;;;;;;0.10;0.10;;;;;;;;;;10409095;28;20048;-64
2021/10/16 17:19:26;;;;;;;0.13;0.13;;;;;;;;;;10397831;28;20060;-67
2021/10/16 17:24:29;;;;;;;0.10;0.10;;;;;;;;;;10393749;28;20583;-66
2021/10/16 17:29:48;;;;;;;0.10;0.10;;;;;;;;;;10392568;28;20507;-64
2021/10/16 17:34:53;;;;;;;0.10;0.10;;;;;;;;;;10408452;28;20041;-67
2021/10/16 17:39:56;;;;;;;0.20;0.20;;;;;;;;;;10391014;28;20042;-64
2021/10/16 17:44:59;;;;;;;0.10;0.10;;;;;;;;;;10395935;28;20049;-66
2021/10/16 17:50:05;;;;;;;0.10;0.10;;;;;;;;;;10400034;28;20789;-66
2021/10/16 17:55:08;;;;;;;0.10;0.10;;;;;;;;;;10398876;28;20472;-66
2021/10/16 18:00:11;;;;;;;0.13;0.13;;;;;;;;;;10399278;28;20045;-67
2021/10/16 18:05:16;;;;;;;0.15;0.15;;;;;;;;;;10397322;28;20041;-66
2021/10/16 18:10:19;;;;;;;0.22;0.22;;;;;;;;;;10398725;28;20049;-66
2021/10/16 18:15:21;;;;;;;0.20;0.20;;;;;;;;;;10399273;28;20048;-66
2021/10/16 18:20:26;;;;;;;0.10;0.10;;;;;;;;;;10398369;28;20055;-66
2021/10/16 18:25:29;;;;;;;0.10;0.10;;;;;;;;;;10396975;28;20556;-66
2021/10/16 18:30:34;;;;;;;0.10;0.10;;;;;;;;;;10397935;28;20042;-66
2021/10/16 18:35:38;;;;;;;0.10;0.10;;;;;;;;;;10401205;28;20057;-66
2021/10/16 18:40:41;;;;;;;0.10;0.10;;;;;;;;;;10399433;28;20123;-66
2021/10/16 18:45:44;;;;;;;0.10;0.10;;;;;;;;;;10401961;28;20065;-66
2021/10/16 18:50:49;;;;;;;0.10;0.10;;;;;;;;;;10403269;28;21268;-66
2021/10/16 18:55:52;;;;;;;0.20;0.20;;;;;;;;;;10401834;28;20107;-66
2021/10/16 19:00:54;;;;;;;0.20;0.20;;;;;;;;;;10400530;28;20216;-66
2021/10/16 19:05:59;;;;;;;0.10;0.10;;;;;;;;;;10402423;28;20049;-66
2021/10/16 19:11:01;;;;;;;0.10;0.10;;;;;;;;;;10402554;28;20877;-66
2021/10/16 19:16:04;;;;;;;0.10;0.10;;;;;;;;;;10403319;28;20041;-66
2021/10/16 19:21:09;;;;;;;0.10;0.10;;;;;;;;;;10399845;28;20049;-66
2021/10/16 19:26:13;;;;;;;0.17;0.17;;;;;;;;;;10399577;28;20055;-66
2021/10/16 19:31:17;;;;;;;0.10;0.10;;;;;;;;;;10397708;28;20046;-66
2021/10/16 19:36:21;;;;;;;0.20;0.20;;;;;;;;;;10397168;28;20049;-66
2021/10/16 19:41:23;;;;;;;0.10;0.10;;;;;;;;;;10399248;28;20639;-66
2021/10/16 19:46:27;;;;;;;0.20;0.20;;;;;;;;;;10399142;28;20073;-65
2021/10/16 19:51:32;;;;;;;0.10;0.10;;;;;;;;;;10398694;28;20148;-66
2021/10/16 19:56:34;;;;;;;0.10;0.10;;;;;;;;;;10396901;28;20048;-66
2021/10/16 20:01:37;;;;;;;0.20;0.20;;;;;;;;;;10397059;28;20408;-66
2021/10/16 20:06:42;;;;;;;0.10;0.10;;;;;;;;;;10395444;28;20505;-66
2021/10/16 20:11:45;;;;;;;0.20;0.20;;;;;;;;;;10397540;28;20042;-66
2021/10/16 20:16:48;;;;;;;0.20;0.20;;;;;;;;;;10399290;28;20641;-66
2021/10/16 20:21:54;;;;;;;0.20;0.20;;;;;;;;;;10397064;28;20504;-66
2021/10/16 20:27:03;;;;;;;0.20;0.20;;;;;;;;;;10397157;28;20577;-66
2021/10/16 20:32:06;;;;;;;0.20;0.20;;;;;;;;;;10398171;28;20828;-66
2021/10/16 20:37:10;;;;;;;0.10;0.10;;;;;;;;;;10394129;28;20057;-66
2021/10/16 20:42:13;;;;;;;0.10;0.10;;;;;;;;;;10397752;28;20056;-66
2021/10/16 20:47:16;;;;;;;0.20;0.20;;;;;;;;;;10408299;28;20528;-66
2021/10/16 20:52:20;;;;;;;0.10;0.10;;;;;;;;;;10396542;28;20045;-66
2021/10/16 20:57:23;;;;;;;0.10;0.10;;;;;;;;;;10391941;28;20045;-66
2021/10/16 21:02:26;;;;;;;0.10;0.10;;;;;;;;;;10398249;28;20417;-66
2021/10/16 21:07:31;;;;;;;0.10;0.10;;;;;;;;;;10401654;28;20045;-66
2021/10/16 21:12:34;;;;;;;0.10;0.10;;;;;;;;;;10397117;28;20128;-66
2021/10/16 21:17:37;;;;;;;0.10;0.10;;;;;;;;;;10398050;28;20045;-65
2021/10/16 21:22:41;;;;;;;0.10;0.10;;;;;;;;;;10365769;28;20050;-65
2021/10/16 21:27:44;;;;;;;0.15;0.15;;;;;;;;;;10361728;28;20050;-65
2021/10/16 21:32:56;;;;;;;0.20;0.17;;;;;;;;;;10380690;28;20511;-66
2021/10/16 21:38:00;;;;;;;0.75;0.20;;;;;;;;;;10361941;28;20052;-65
2021/10/16 21:43:04;;;;;;;0.20;0.20;;;;;;;;;;10357926;28;20448;-65
2021/10/16 21:48:06;;;;;;;0.10;0.10;;;;;;;;;;10359732;28;20789;-66
2021/10/16 21:53:11;;;;;;;0.17;0.17;;;;;;;;;;10360881;28;20496;-65
2021/10/16 21:58:14;;;;;;;0.20;0.20;;;;;;;;;;10359995;28;20107;-65
2021/10/16 22:03:18;;;;;;;0.20;0.20;;;;;;;;;;10360650;28;20069;-65
2021/10/16 22:08:22;;;;;;;0.10;0.10;;;;;;;;;;10363560;28;20046;-65
2021/10/16 22:13:25;;;;;;;0.15;0.15;;;;;;;;;;10362418;28;20870;-65
2021/10/16 22:18:28;;;;;;;0.20;0.20;;;;;;;;;;10364146;28;20050;-65
2021/10/16 22:23:32;;;;;;;0.20;0.20;;;;;;;;;;10401279;28;20534;-65
2021/10/16 22:28:35;;;;;;;0.10;0.10;;;;;;;;;;10401076;28;20034;-65
2021/10/16 22:33:39;;;;;;;0.20;0.20;;;;;;;;;;10401955;28;20065;-65
2021/10/16 22:38:43;;;;;;;0.20;0.20;;;;;;;;;;10400420;28;20077;-65
2021/10/16 22:43:47;;;;;;;0.20;0.20;;;;;;;;;;10402359;28;20919;-65
2021/10/16 22:49:15;;;;;;;0.20;0.20;;;;;;;;;;10399704;28;20041;-65
2021/10/16 22:54:19;;;;;;;0.10;0.10;;;;;;;;;;10399839;28;20052;-65
2021/10/16 22:59:28;;;;;;;0.13;0.13;;;;;;;;;;10401038;28;20052;-65
2021/10/16 23:04:31;;;;;;;0.10;0.10;;;;;;;;;;10397592;28;20048;-65
2021/10/16 23:09:36;;;;;;;0.17;0.17;;;;;;;;;;10400558;28;20038;-66
2021/10/16 23:14:39;;;;;;;0.10;0.10;;;;;;;;;;10404685;28;20371;-66
2021/10/16 23:19:42;;;;;;;0.20;0.20;;;;;;;;;;10399835;28;20057;-66
2021/10/16 23:24:46;;;;;;;0.20;0.20;;;;;;;;;;10400102;28;20049;-66
2021/10/16 23:29:49;;;;;;;0.20;0.20;;;;;;;;;;10398657;28;20045;-66
2021/10/16 23:34:52;;;;;;;0.10;0.10;;;;;;;;;;10399883;28;20041;-66
2021/10/16 23:39:56;;;;;;;0.20;0.20;;;;;;;;;;10400016;28;20045;-66
2021/10/16 23:44:59;;;;;;;0.20;0.20;;;;;;;;;;10399462;28;20092;-66
2021/10/16 23:50:02;;;;;;;0.10;0.10;;;;;;;;;;10398385;28;20073;-66
2021/10/16 23:55:08;;;;;;;0.20;0.20;;;;;;;;;;10398850;28;20052;-65
